Roans Prairie, Texas
Current Conditions -  °F | °C
As of 4:04 AM on Sunday 23 Nov 2014 (Local Time) from KUTS Reporting Station
Broken Clouds Broken Clouds  
Wind Chill: 16°   Ceiling: 400
Heat Index: 16°   Visibility: 10mi
Dew Point: 14°   Wind: 8mph
Humidity: 93%   Direction: 190°S
Pressure: 29.61"   Gusts: NA
Location:  30.58°N, 95.94°W
Report Text: KUTS 231004Z AUTO 19007KT 10SM BKN004 16/14 A2961 RMK AO2 T01560144
Loading
Personal Weather Stations






























Interactive Weather Map New forecast layout! Learn more

10-Day Weather Forecast

Advertisements
Track Severe Weather on mobile